createdAt,value
2019-05-03T00:00:29.082Z,7.05
2019-05-03T00:01:29.066Z,7.06
2019-05-03T00:02:29.078Z,7.05
2019-05-03T00:03:29.011Z,7.03
2019-05-03T00:04:28.995Z,7.03
2019-05-03T00:05:29.022Z,7.03
2019-05-03T00:06:28.967Z,7.03
2019-05-03T00:07:36.919Z,7.03
2019-05-03T00:08:29.006Z,7.03
2019-05-03T00:09:28.928Z,7.02
2019-05-03T00:10:29.031Z,7.02
2019-05-03T00:11:36.621Z,7.00
2019-05-03T00:12:28.997Z,7.02
2019-05-03T00:14:41.687Z,7.00
2019-05-03T00:15:40.296Z,7.00
2019-05-03T00:16:41.665Z,7.00
2019-05-03T00:17:41.957Z,7.00
2019-05-03T00:18:48.132Z,7.00
2019-05-03T00:19:48.107Z,6.99
2019-05-03T00:20:41.995Z,6.97
2019-05-03T00:21:49.044Z,6.97
2019-05-03T00:22:48.071Z,6.96
2019-05-03T00:23:41.797Z,6.97
2019-05-03T00:24:40.119Z,6.96
2019-05-03T00:25:48.799Z,6.95
2019-05-03T00:26:42.205Z,6.95
2019-05-03T00:27:40.121Z,6.93
2019-05-03T00:28:47.725Z,6.92
2019-05-03T00:29:41.803Z,6.92
2019-05-03T00:30:47.739Z,6.92
2019-05-03T00:31:42.204Z,6.93
2019-05-03T00:32:47.994Z,6.89
2019-05-03T00:33:49.057Z,6.92
2019-05-03T00:34:41.711Z,6.89
2019-05-03T00:35:47.937Z,6.87
2019-05-03T00:36:41.847Z,6.87
2019-05-03T00:37:41.939Z,6.87
2019-05-03T00:38:48.197Z,6.85
2019-05-03T00:39:41.768Z,6.84
2019-05-03T00:40:41.707Z,6.84
2019-05-03T00:41:51.988Z,6.82
2019-05-03T00:42:39.945Z,6.81
2019-05-03T00:43:47.888Z,6.81
2019-05-03T00:45:51.700Z,6.78
2019-05-03T00:48:01.728Z,6.75
2019-05-03T00:50:08.399Z,6.72
2019-05-03T00:52:17.245Z,6.69
2019-05-03T00:54:26.958Z,6.67
2019-05-03T00:56:35.768Z,6.66
2019-05-03T00:57:45.073Z,6.64
2019-05-03T00:59:45.612Z,6.63
2019-05-03T01:00:45.504Z,6.60
2019-05-03T01:01:53.306Z,6.59
2019-05-03T01:03:55.373Z,6.57
2019-05-03T01:04:55.325Z,6.56
2019-05-03T01:05:55.281Z,6.54
2019-05-03T01:07:04.313Z,6.52
2019-05-03T01:09:05.137Z,6.51
2019-05-03T01:10:13.029Z,6.49
2019-05-03T01:11:12.862Z,6.49
2019-05-03T01:12:13.150Z,6.49
2019-05-03T01:14:22.582Z,6.48
2019-05-03T01:15:21.562Z,6.46
2019-05-03T01:16:28.776Z,6.46
2019-05-03T01:17:28.850Z,6.46
2019-05-03T01:18:28.694Z,6.46
2019-05-03T01:19:31.945Z,6.46
2019-05-03T01:20:28.731Z,6.46
2019-05-03T01:21:22.607Z,6.46
2019-05-03T01:22:28.769Z,6.45
2019-05-03T01:23:29.073Z,6.45
2019-05-03T01:25:35.215Z,6.44
2019-05-03T01:26:39.454Z,6.45
2019-05-03T01:27:39.507Z,6.44
2019-05-03T01:28:42.487Z,6.44
2019-05-03T01:29:32.276Z,6.42
2019-05-03T01:30:42.514Z,6.42
2019-05-03T01:31:39.656Z,6.39
2019-05-03T01:32:41.708Z,6.39
2019-05-03T01:33:39.317Z,6.38
2019-05-03T01:34:39.314Z,6.39
2019-05-03T01:35:42.657Z,6.39
2019-05-03T01:36:39.434Z,6.39
2019-05-03T01:37:39.531Z,6.39
2019-05-03T01:38:42.258Z,6.38
2019-05-03T01:39:42.144Z,6.36
2019-05-03T01:40:41.933Z,6.36
2019-05-03T01:41:41.600Z,6.36
2019-05-03T01:42:32.137Z,6.35
2019-05-03T01:43:41.506Z,6.36
2019-05-03T01:44:39.187Z,6.35
2019-05-03T01:45:42.356Z,6.35
2019-05-03T01:46:39.308Z,6.35
2019-05-03T01:47:32.578Z,6.33
2019-05-03T01:48:39.116Z,6.33
2019-05-03T01:49:32.073Z,6.33
2019-05-03T01:50:32.054Z,6.33
2019-05-03T01:51:32.676Z,6.33
2019-05-03T01:52:32.435Z,6.31
2019-05-03T01:53:32.244Z,6.31
2019-05-03T01:54:32.120Z,6.30
2019-05-03T01:55:44.439Z,6.28
2019-05-03T01:57:41.887Z,6.30
2019-05-03T01:59:51.946Z,6.27
2019-05-03T02:00:59.926Z,6.26
2019-05-03T02:01:59.033Z,6.26
2019-05-03T02:02:57.784Z,6.24
2019-05-03T02:03:58.868Z,6.24
2019-05-03T02:04:49.700Z,6.22
2019-05-03T02:05:49.726Z,6.24
2019-05-03T02:06:51.783Z,6.22
2019-05-03T02:07:51.852Z,6.22
2019-05-03T02:08:57.630Z,6.22
2019-05-03T02:09:51.884Z,6.20
2019-05-03T02:10:51.648Z,6.24
2019-05-03T02:11:49.677Z,6.19
2019-05-03T02:12:49.643Z,6.20
2019-05-03T02:13:49.740Z,6.17
2019-05-03T02:14:51.577Z,6.17
2019-05-03T02:15:49.625Z,6.17
2019-05-03T02:16:49.710Z,6.16
2019-05-03T02:17:49.639Z,6.16
2019-05-03T02:18:51.684Z,6.14
2019-05-03T02:19:49.580Z,6.12
2019-05-03T02:20:49.595Z,6.12
2019-05-03T02:21:49.599Z,6.12
2019-05-03T02:22:49.584Z,6.11
2019-05-03T02:23:49.535Z,6.09
2019-05-03T02:24:49.547Z,6.07
2019-05-03T02:25:56.160Z,6.08
2019-05-03T02:26:50.535Z,6.07
2019-05-03T02:27:49.485Z,6.05
2019-05-03T02:28:49.551Z,6.05
2019-05-03T02:29:49.481Z,6.04
2019-05-03T02:30:49.491Z,6.04
2019-05-03T02:31:49.455Z,6.02
2019-05-03T02:32:49.437Z,6.01
2019-05-03T02:33:49.420Z,6.01
2019-05-03T02:34:49.520Z,5.99
2019-05-03T02:35:49.412Z,5.98
2019-05-03T02:36:49.674Z,5.97
2019-05-03T02:37:49.517Z,5.94
2019-05-03T02:38:49.387Z,5.93
2019-05-03T02:39:49.416Z,5.93
2019-05-03T02:40:49.357Z,5.91
2019-05-03T02:41:54.490Z,5.90
2019-05-03T02:42:50.319Z,5.90
2019-05-03T02:43:49.389Z,5.90
2019-05-03T02:44:49.526Z,5.87
2019-05-03T02:45:49.330Z,5.86
2019-05-03T02:46:49.272Z,5.87
2019-05-03T02:47:49.331Z,5.86
2019-05-03T02:48:49.248Z,5.84
2019-05-03T02:49:49.248Z,5.84
2019-05-03T02:50:49.288Z,5.82
2019-05-03T02:51:49.237Z,5.82
2019-05-03T02:52:49.243Z,5.80
2019-05-03T02:53:49.216Z,5.80
2019-05-03T02:54:49.220Z,5.79
2019-05-03T02:55:49.254Z,5.76
2019-05-03T02:56:49.207Z,5.75
2019-05-03T02:57:49.175Z,5.73
2019-05-03T02:58:49.157Z,5.75
2019-05-03T02:59:49.947Z,5.73
2019-05-03T03:00:49.161Z,5.71
2019-05-03T03:01:49.233Z,5.72
2019-05-03T03:02:49.121Z,5.68
2019-05-03T03:03:49.111Z,5.68
2019-05-03T03:04:49.143Z,5.68
2019-05-03T03:05:49.103Z,5.68
2019-05-03T03:06:49.109Z,5.68
2019-05-03T03:07:49.087Z,5.65
2019-05-03T03:08:49.084Z,5.64
2019-05-03T03:09:49.039Z,5.61
2019-05-03T03:10:49.075Z,5.59
2019-05-03T03:11:49.079Z,5.57
2019-05-03T03:12:49.025Z,5.56
2019-05-03T03:13:49.007Z,5.56
2019-05-03T03:14:48.989Z,5.53
2019-05-03T03:15:48.967Z,5.50
2019-05-03T03:16:48.997Z,5.50
2019-05-03T03:17:48.957Z,5.50
2019-05-03T03:18:48.937Z,5.47
2019-05-03T03:19:48.918Z,5.46
2019-05-03T03:20:48.921Z,5.46
2019-05-03T03:21:48.988Z,5.44
2019-05-03T03:22:48.901Z,5.43
2019-05-03T03:23:48.899Z,5.41
2019-05-03T03:24:48.927Z,5.38
2019-05-03T03:25:48.854Z,5.39
2019-05-03T03:26:48.879Z,5.41
2019-05-03T03:27:48.865Z,5.38
2019-05-03T03:28:48.895Z,5.35
2019-05-03T03:29:48.857Z,5.30
2019-05-03T03:30:48.999Z,5.28
2019-05-03T03:31:48.989Z,5.23
2019-05-03T03:32:48.865Z,5.20
2019-05-03T03:33:48.801Z,5.15
2019-05-03T03:34:55.460Z,5.14
2019-05-03T03:35:49.790Z,5.08
2019-05-03T03:36:59.362Z,5.02
2019-05-03T03:37:49.765Z,5.00
2019-05-03T03:38:48.859Z,4.96
2019-05-03T03:39:48.949Z,4.92
2019-05-03T03:40:48.949Z,4.86
2019-05-03T03:41:48.709Z,4.78
2019-05-03T03:42:49.029Z,4.71
2019-05-03T03:43:48.832Z,4.70
2019-05-03T03:44:48.670Z,4.67
2019-05-03T03:45:48.962Z,4.67
2019-05-03T03:46:48.700Z,4.66
2019-05-03T03:47:48.727Z,4.63
2019-05-03T03:48:48.682Z,4.63
2019-05-03T03:49:48.760Z,4.62
2019-05-03T03:50:48.881Z,4.58
2019-05-03T03:51:48.608Z,4.55
2019-05-03T03:52:48.806Z,4.53
2019-05-03T03:53:48.753Z,4.49
2019-05-03T03:54:48.799Z,4.42
2019-05-03T03:55:48.721Z,4.40
2019-05-03T03:56:59.358Z,4.35
2019-05-03T03:57:49.735Z,4.31
2019-05-03T03:58:48.653Z,4.26
2019-05-03T03:59:48.692Z,4.22
2019-05-03T04:00:48.597Z,4.20
2019-05-03T04:01:48.632Z,4.13
2019-05-03T04:02:48.761Z,4.12
2019-05-03T04:03:48.852Z,4.13
2019-05-03T04:06:09.603Z,4.22
2019-05-03T04:08:19.665Z,4.30
2019-05-03T04:10:35.031Z,4.28
2019-05-03T04:11:40.467Z,4.23
2019-05-03T04:12:41.143Z,4.22
2019-05-03T04:14:45.129Z,4.14
2019-05-03T04:15:51.570Z,4.12
2019-05-03T04:17:52.206Z,4.10
2019-05-03T04:20:02.006Z,4.10
2019-05-03T04:22:12.955Z,4.05
2019-05-03T04:24:25.677Z,4.04
2019-05-03T04:26:45.381Z,4.06
2019-05-03T04:29:06.687Z,4.13
2019-05-03T04:31:16.600Z,4.42
2019-05-03T04:34:05.116Z,4.82
2019-05-03T04:36:26.498Z,4.90
2019-05-03T04:38:38.188Z,4.94
2019-05-03T04:41:02.174Z,5.02
2019-05-03T04:43:10.738Z,5.15
2019-05-03T04:45:22.143Z,5.36
2019-05-03T04:47:35.731Z,5.51
2019-05-03T04:48:41.269Z,5.56
2019-05-03T04:50:54.972Z,5.54
2019-05-03T04:53:05.529Z,5.54
2019-05-03T04:54:05.269Z,5.61
2019-05-03T04:55:12.456Z,5.64
2019-05-03T04:56:12.261Z,5.73
2019-05-03T04:58:15.939Z,5.99
2019-05-03T13:29:09.377Z,12.21
2019-05-03T13:31:18.204Z,11.87
2019-05-03T13:32:18.204Z,12.00
2019-05-03T13:33:18.198Z,11.97
2019-05-03T13:34:18.206Z,11.94
2019-05-03T13:35:18.182Z,11.77
2019-05-03T13:36:18.163Z,11.59
2019-05-03T13:37:18.154Z,11.55
2019-05-03T13:38:18.142Z,11.41
2019-05-03T13:39:18.128Z,11.44
2019-05-03T13:40:18.130Z,11.37
2019-05-03T13:41:18.104Z,11.51
2019-05-03T13:42:18.122Z,11.60
2019-05-03T13:43:18.088Z,11.69
2019-05-03T13:44:18.082Z,11.87
2019-05-03T13:45:18.101Z,11.95
2019-05-03T13:46:18.051Z,12.02
2019-05-03T13:47:18.055Z,12.02
2019-05-03T13:48:20.942Z,11.95
2019-05-03T13:49:18.020Z,11.91
2019-05-03T13:50:18.053Z,11.97
2019-05-03T13:51:18.001Z,12.00
2019-05-03T13:52:17.989Z,12.00
2019-05-03T13:53:17.992Z,12.46
2019-05-03T13:54:17.969Z,13.65
2019-05-03T13:55:17.988Z,14.60
2019-05-03T13:56:17.956Z,16.24
2019-05-03T13:57:17.939Z,16.86
2019-05-03T13:58:17.927Z,17.82
2019-05-03T13:59:19.924Z,18.16
2019-05-03T14:00:17.919Z,17.89
2019-05-03T14:01:17.892Z,18.47
2019-05-03T14:02:19.222Z,18.77
2019-05-03T14:03:17.868Z,17.48
2019-05-03T14:04:17.857Z,16.29
2019-05-03T14:05:17.869Z,15.14
2019-05-03T14:06:17.862Z,14.47
2019-05-03T14:07:17.904Z,13.77
2019-05-03T14:08:17.819Z,13.25
2019-05-03T14:09:17.802Z,12.93
2019-05-03T14:10:17.839Z,12.80
2019-05-03T14:11:17.787Z,12.80
2019-05-03T14:12:17.794Z,12.75
2019-05-03T14:13:17.781Z,12.86
2019-05-03T14:14:17.768Z,13.03
2019-05-03T14:15:17.751Z,13.13
2019-05-03T14:16:17.776Z,13.23
2019-05-03T14:17:17.771Z,13.09
2019-05-03T14:18:17.701Z,12.91
2019-05-03T14:19:17.718Z,12.86
2019-05-03T14:20:17.703Z,12.98
2019-05-03T14:21:17.711Z,13.78
2019-05-03T14:22:17.674Z,14.50
2019-05-03T14:23:17.668Z,14.59
2019-05-03T14:24:17.655Z,14.45
2019-05-03T14:25:17.637Z,13.92
2019-05-03T14:26:17.633Z,13.90
2019-05-03T14:27:17.647Z,13.65
2019-05-03T14:28:17.596Z,13.62
2019-05-03T14:29:17.593Z,13.87
2019-05-03T14:30:17.575Z,13.65
2019-05-03T14:31:17.569Z,13.53
2019-05-03T14:32:25.800Z,13.56
2019-05-03T14:33:18.557Z,13.60
2019-05-03T14:34:17.736Z,13.74
2019-05-03T14:35:17.515Z,13.60
2019-05-03T14:36:17.539Z,13.52
2019-05-03T14:37:17.535Z,13.65
2019-05-03T14:38:17.485Z,13.53
2019-05-03T14:39:17.483Z,13.25
2019-05-03T14:40:17.475Z,13.35
2019-05-03T14:41:17.459Z,13.56
2019-05-03T14:42:17.463Z,13.85
2019-05-03T14:43:17.465Z,14.26
2019-05-03T14:44:18.223Z,14.05
2019-05-03T14:45:17.425Z,13.68
2019-05-03T14:46:29.151Z,13.68
2019-05-03T14:47:18.399Z,13.60
2019-05-03T14:48:17.411Z,13.81
2019-05-03T14:49:17.371Z,14.15
2019-05-03T14:50:17.364Z,14.23
2019-05-03T14:51:17.369Z,14.00
2019-05-03T14:52:17.377Z,13.49
2019-05-03T14:53:17.334Z,12.82
2019-05-03T14:54:17.357Z,12.32
2019-05-03T14:55:17.320Z,12.06
2019-05-03T14:56:17.304Z,11.80
2019-05-03T14:57:17.366Z,11.62
2019-05-03T14:58:17.679Z,11.59
2019-05-03T14:59:17.299Z,11.57
2019-05-03T15:00:17.531Z,11.41
2019-05-03T15:01:17.249Z,11.44
2019-05-03T15:02:17.252Z,11.54
2019-05-03T15:03:17.240Z,11.72
2019-05-03T15:04:17.258Z,12.09
2019-05-03T15:05:17.211Z,12.36
2019-05-03T15:06:17.201Z,12.67
2019-05-03T15:07:17.184Z,13.09
2019-05-03T15:08:17.191Z,13.20
2019-05-03T15:09:19.118Z,13.16
2019-05-03T15:10:17.258Z,13.11
2019-05-03T15:11:17.254Z,12.93
2019-05-03T15:12:17.128Z,12.61
2019-05-03T15:13:17.149Z,12.31
2019-05-03T15:14:17.210Z,12.20
2019-05-03T15:15:17.140Z,12.13
2019-05-03T15:16:17.090Z,12.13
2019-05-03T15:17:17.141Z,12.17
2019-05-03T15:18:17.080Z,12.36
2019-05-03T15:19:17.066Z,12.45
2019-05-03T15:20:17.108Z,12.47
2019-05-03T15:21:17.106Z,12.45
2019-05-03T15:22:17.097Z,12.45
2019-05-03T15:23:17.022Z,12.28
2019-05-03T15:24:17.027Z,12.04
2019-05-03T15:25:17.076Z,11.99
2019-05-03T15:26:16.987Z,11.84
2019-05-03T15:27:17.005Z,11.66
2019-05-03T15:28:17.008Z,11.57
2019-05-03T15:29:16.952Z,11.37
2019-05-03T15:30:16.984Z,11.40
2019-05-03T15:31:16.946Z,11.44
2019-05-03T15:32:16.914Z,11.40
2019-05-03T15:33:16.906Z,11.35
2019-05-03T15:34:16.907Z,11.35
2019-05-03T15:35:16.873Z,11.27
2019-05-03T15:36:16.903Z,11.17
2019-05-03T15:37:16.874Z,11.07
2019-05-03T15:38:16.857Z,11.08
2019-05-03T15:39:16.848Z,11.07
2019-05-03T15:40:16.835Z,11.05
2019-05-03T15:41:16.907Z,10.99
2019-05-03T15:42:16.822Z,11.04
2019-05-03T15:43:16.790Z,11.02
2019-05-03T15:44:16.788Z,10.96
2019-05-03T15:45:16.779Z,10.94
2019-05-03T15:46:16.782Z,10.81
2019-05-03T15:47:16.740Z,10.79
2019-05-03T15:48:16.759Z,10.71
2019-05-03T15:49:16.727Z,10.61
2019-05-03T15:50:16.720Z,10.54
2019-05-03T15:51:16.758Z,10.49
2019-05-03T15:52:16.699Z,10.41
2019-05-03T15:53:16.688Z,10.34
2019-05-03T15:54:16.670Z,10.31
2019-05-03T15:55:16.660Z,10.26
2019-05-03T15:56:16.686Z,10.23
2019-05-03T15:57:16.635Z,10.19
2019-05-03T15:58:16.642Z,10.09
2019-05-03T15:59:16.627Z,10.05
2019-05-03T16:00:16.616Z,9.99
2019-05-03T16:01:16.640Z,9.98
2019-05-03T16:02:16.597Z,9.95
2019-05-03T16:03:16.578Z,9.95
2019-05-03T16:04:16.558Z,9.94
2019-05-03T16:05:16.546Z,9.91
2019-05-03T16:06:16.554Z,9.89
2019-05-03T16:07:16.558Z,9.89
2019-05-03T16:08:16.526Z,9.83
2019-05-03T16:09:16.567Z,9.84
2019-05-03T16:10:16.496Z,9.80
2019-05-03T16:11:16.519Z,9.77
2019-05-03T16:12:16.516Z,9.79
2019-05-03T16:13:16.478Z,9.80
2019-05-03T16:14:16.492Z,9.79
2019-05-03T16:15:16.461Z,9.82
2019-05-03T16:16:16.435Z,9.83
2019-05-03T16:17:16.462Z,9.87
2019-05-03T16:18:17.508Z,9.91
2019-05-03T16:19:16.415Z,9.91
2019-05-03T16:20:16.393Z,9.94
2019-05-03T16:21:16.443Z,9.99
2019-05-03T16:22:16.407Z,10.01
2019-05-03T16:23:16.382Z,9.98
2019-05-03T16:24:16.363Z,10.01
2019-05-03T16:25:16.354Z,9.99
2019-05-03T16:26:16.346Z,9.98
2019-05-03T16:27:16.375Z,9.98
2019-05-03T16:28:16.327Z,9.94
2019-05-03T16:29:16.310Z,9.91
2019-05-03T16:30:16.289Z,9.87
2019-05-03T16:31:16.290Z,9.82
2019-05-03T16:32:16.312Z,9.80
2019-05-03T16:33:26.610Z,9.79
2019-05-03T16:34:17.239Z,9.77
2019-05-03T16:35:16.238Z,9.74
2019-05-03T16:36:16.246Z,9.73
2019-05-03T16:37:16.243Z,9.72
2019-05-03T16:38:16.229Z,9.69
2019-05-03T16:39:16.193Z,9.65
2019-05-03T16:40:16.777Z,9.64
2019-05-03T16:41:17.862Z,9.59
2019-05-03T16:42:16.177Z,9.59
2019-05-03T16:43:16.402Z,9.59
2019-05-03T16:44:16.516Z,9.56
2019-05-03T16:45:17.082Z,9.54
2019-05-03T16:46:16.115Z,9.51
2019-05-03T16:47:16.115Z,9.50
2019-05-03T16:48:18.369Z,9.47
2019-05-03T16:49:16.112Z,9.46
2019-05-03T16:50:16.081Z,9.44
2019-05-03T16:51:17.232Z,9.43
2019-05-03T16:52:17.427Z,9.40
2019-05-03T16:53:16.045Z,9.40
2019-05-03T16:54:16.513Z,9.39
2019-05-03T16:55:16.469Z,9.36
2019-05-03T16:56:17.129Z,9.32
2019-05-03T16:57:17.552Z,9.31
2019-05-03T16:58:16.916Z,9.31
2019-05-03T16:59:17.423Z,9.32
2019-05-03T17:00:17.885Z,9.32
2019-05-03T17:01:18.009Z,9.31
2019-05-03T17:02:17.476Z,9.31
2019-05-03T17:03:17.197Z,9.32
2019-05-03T17:04:15.927Z,9.34
2019-05-03T17:05:15.950Z,9.36
2019-05-03T17:06:15.919Z,9.34
2019-05-03T17:07:15.889Z,9.34
2019-05-03T17:08:15.873Z,9.34
2019-05-03T17:09:15.889Z,9.32
2019-05-03T17:10:15.871Z,9.28
2019-05-03T17:11:15.845Z,9.28
2019-05-03T17:12:15.848Z,9.25
2019-05-03T17:13:15.831Z,9.22
2019-05-03T17:14:15.830Z,9.21
2019-05-03T17:15:15.826Z,9.18
2019-05-03T17:16:15.799Z,9.16
2019-05-03T17:17:15.789Z,9.13
2019-05-03T17:18:17.256Z,9.10
2019-05-03T17:19:17.287Z,9.08
2019-05-03T17:20:16.625Z,9.04
2019-05-03T17:21:16.371Z,9.02
2019-05-03T17:22:17.307Z,9.00
2019-05-03T17:23:15.712Z,8.99
2019-05-03T17:24:15.725Z,8.97
2019-05-03T17:25:15.702Z,8.95
2019-05-03T17:26:17.541Z,8.92
2019-05-03T17:27:15.675Z,8.91
2019-05-03T17:28:15.788Z,8.91
2019-05-03T17:29:15.662Z,8.89
2019-05-03T17:30:15.757Z,8.89
2019-05-03T17:31:15.664Z,8.84
2019-05-03T17:32:15.644Z,8.84
2019-05-03T17:33:16.099Z,8.82
2019-05-03T17:34:15.623Z,8.81
2019-05-03T17:35:15.602Z,8.79
2019-05-03T17:36:15.597Z,8.79
2019-05-03T17:37:15.602Z,8.74
2019-05-03T17:38:15.564Z,8.73
2019-05-03T17:39:15.554Z,8.71
2019-05-03T17:40:15.551Z,8.69
2019-05-03T17:41:15.530Z,8.67
2019-05-03T17:42:15.548Z,8.64
2019-05-03T17:43:15.519Z,8.61
2019-05-03T17:44:15.501Z,8.60
2019-05-03T17:45:15.480Z,8.56
2019-05-03T17:46:15.488Z,8.55
2019-05-03T17:47:15.468Z,8.51
2019-05-03T17:48:15.468Z,8.52
2019-05-03T17:49:15.446Z,8.48
2019-05-03T17:50:15.428Z,8.48
2019-05-03T17:51:15.424Z,8.48
2019-05-03T17:52:15.407Z,8.48
2019-05-03T17:53:15.422Z,8.48
2019-05-03T17:54:15.396Z,8.51
2019-05-03T17:55:15.382Z,8.52
2019-05-03T17:56:15.382Z,8.52
2019-05-03T17:57:15.375Z,8.55
2019-05-03T17:58:15.387Z,8.55
2019-05-03T17:59:15.334Z,8.56
2019-05-03T18:00:15.324Z,8.58
2019-05-03T18:01:15.324Z,8.58
2019-05-03T18:02:15.415Z,8.58
2019-05-03T18:03:15.324Z,8.58
2019-05-03T18:04:15.745Z,8.58
2019-05-03T18:05:15.276Z,8.58
2019-05-03T18:06:15.266Z,8.56
2019-05-03T18:07:15.252Z,8.55
2019-05-03T18:08:15.244Z,8.55
2019-05-03T18:09:15.254Z,8.51
2019-05-03T18:10:15.271Z,8.49
2019-05-03T18:11:15.220Z,8.48
2019-05-03T18:12:15.205Z,8.48
2019-05-03T18:13:15.196Z,8.48
2019-05-03T18:14:15.215Z,8.48
2019-05-03T18:15:15.181Z,8.45
2019-05-03T18:16:15.147Z,8.45
2019-05-03T18:17:15.150Z,8.42
2019-05-03T18:18:15.755Z,8.42
2019-05-03T18:19:15.120Z,8.38
2019-05-03T18:20:15.140Z,8.38
2019-05-03T18:21:15.243Z,8.36
2019-05-03T18:22:15.367Z,8.34
2019-05-03T18:23:15.442Z,8.34
2019-05-03T18:24:15.427Z,8.31
2019-05-03T18:25:15.076Z,8.30
2019-05-03T18:26:15.058Z,8.30
2019-05-03T18:27:15.180Z,8.30
2019-05-03T18:28:15.137Z,8.28
2019-05-03T18:29:15.026Z,8.27
2019-05-03T18:30:15.019Z,8.24
2019-05-03T18:31:15.006Z,8.23
2019-05-03T18:32:14.996Z,8.20
2019-05-03T18:33:15.407Z,8.19
2019-05-03T18:34:19.775Z,8.18
2019-05-03T18:35:15.960Z,8.13
2019-05-03T18:36:15.024Z,8.12
2019-05-03T18:37:15.363Z,8.09
2019-05-03T18:38:14.960Z,8.09
2019-05-03T18:39:14.939Z,8.06
2019-05-03T18:40:14.894Z,8.03
2019-05-03T18:41:14.894Z,8.00
2019-05-03T18:42:14.901Z,7.98
2019-05-03T18:43:15.039Z,7.97
2019-05-03T18:44:14.906Z,7.95
2019-05-03T18:45:15.082Z,7.90
2019-05-03T18:46:14.844Z,7.90
2019-05-03T18:47:14.852Z,7.90
2019-05-03T18:48:14.822Z,7.85
2019-05-03T18:49:14.806Z,7.83
2019-05-03T18:50:14.798Z,7.82
2019-05-03T18:51:14.868Z,7.82
2019-05-03T18:52:15.010Z,7.80
2019-05-03T18:53:15.101Z,7.79
2019-05-03T18:54:15.623Z,7.80
2019-05-03T18:55:14.750Z,7.79
2019-05-03T18:56:14.876Z,7.80
2019-05-03T18:57:15.609Z,7.77
2019-05-03T18:58:14.908Z,7.76
2019-05-03T18:59:14.731Z,7.73
2019-05-03T19:00:15.343Z,7.73
2019-05-03T19:01:14.971Z,7.73
2019-05-03T19:02:14.988Z,7.73
2019-05-03T19:03:14.693Z,7.72
2019-05-03T19:04:14.769Z,7.72
2019-05-03T19:05:15.290Z,7.70
2019-05-03T19:06:14.627Z,7.69
2019-05-03T19:07:14.937Z,7.67
2019-05-03T19:08:15.317Z,7.66
2019-05-03T19:09:14.625Z,7.67
2019-05-03T19:10:15.351Z,7.66
2019-05-03T19:11:15.115Z,7.66
2019-05-03T19:12:15.401Z,7.66
2019-05-03T19:13:14.988Z,7.63
2019-05-03T19:14:15.037Z,7.61
2019-05-03T19:15:14.591Z,7.61
2019-05-03T19:16:14.939Z,7.61
2019-05-03T19:17:15.371Z,7.63
2019-05-03T19:18:15.444Z,7.61
2019-05-03T19:19:14.498Z,7.63
2019-05-03T19:20:15.314Z,7.63
2019-05-03T19:21:15.023Z,7.60
2019-05-03T19:22:15.415Z,7.60
2019-05-03T19:23:15.398Z,7.60
2019-05-03T19:24:15.222Z,7.60
2019-05-03T19:25:14.866Z,7.58
2019-05-03T19:26:14.566Z,7.58
2019-05-03T19:27:14.398Z,7.58
2019-05-03T19:28:14.397Z,7.57
2019-05-03T19:29:14.896Z,7.58
2019-05-03T19:30:14.857Z,7.58
2019-05-03T19:31:14.362Z,7.58
2019-05-03T19:32:14.986Z,7.56
2019-05-03T19:33:14.348Z,7.56
2019-05-03T19:34:15.432Z,7.54
2019-05-03T19:35:15.721Z,7.51
2019-05-03T19:36:14.329Z,7.48
2019-05-03T19:37:14.615Z,7.45
2019-05-03T19:38:15.151Z,7.42
2019-05-03T19:39:14.465Z,7.36
2019-05-03T19:40:14.294Z,7.33
2019-05-03T19:41:14.549Z,7.29
2019-05-03T19:42:14.250Z,7.25
2019-05-03T19:43:15.275Z,7.25
2019-05-03T19:44:15.147Z,7.24
2019-05-03T19:45:15.236Z,7.24
2019-05-03T19:46:16.483Z,7.24
2019-05-03T19:47:15.684Z,7.24
2019-05-03T19:48:14.769Z,7.24
2019-05-03T19:49:14.173Z,7.24
2019-05-03T19:50:15.773Z,7.23
2019-05-03T19:51:14.174Z,7.20
2019-05-03T19:52:14.480Z,7.20
2019-05-03T19:53:14.501Z,7.18
2019-05-03T19:54:14.728Z,7.17
2019-05-03T19:55:15.422Z,7.14
2019-05-03T19:56:14.733Z,7.13
2019-05-03T19:57:15.196Z,7.10
2019-05-03T19:58:14.446Z,7.06
2019-05-03T19:59:14.881Z,7.06
2019-05-03T20:00:14.937Z,7.05
2019-05-03T20:01:14.811Z,7.10
2019-05-03T20:02:15.007Z,7.07
2019-05-03T20:03:15.479Z,7.07
2019-05-03T20:04:15.119Z,7.10
2019-05-03T20:05:15.038Z,7.10
2019-05-03T20:06:14.442Z,7.13
2019-05-03T20:07:14.702Z,7.11
2019-05-03T20:08:15.399Z,7.13
2019-05-03T20:09:15.150Z,7.13
2019-05-03T20:10:14.711Z,7.13
2019-05-03T20:11:14.894Z,7.14
2019-05-03T20:12:15.204Z,7.13
2019-05-03T20:13:15.180Z,7.14
2019-05-03T20:14:14.886Z,7.13
2019-05-03T20:15:14.555Z,7.14
2019-05-03T20:16:15.307Z,7.15
2019-05-03T20:17:14.801Z,7.15
2019-05-03T20:18:15.243Z,7.14
2019-05-03T20:19:18.839Z,7.15
2019-05-03T20:20:15.455Z,7.17
2019-05-03T20:21:14.945Z,7.15
2019-05-03T20:22:15.166Z,7.15
2019-05-03T20:23:14.645Z,7.15
2019-05-03T20:24:14.937Z,7.14
2019-05-03T20:25:15.155Z,7.15
2019-05-03T20:26:15.005Z,7.15
2019-05-03T20:27:15.159Z,7.14
2019-05-03T20:28:15.381Z,7.11
2019-05-03T20:29:14.775Z,7.13
2019-05-03T20:30:15.070Z,7.11
2019-05-03T20:31:13.718Z,7.10
2019-05-03T20:32:15.777Z,7.11
2019-05-03T20:33:13.714Z,7.10
2019-05-03T20:34:15.690Z,7.07
2019-05-03T20:35:18.717Z,7.10
2019-05-03T20:36:14.691Z,7.07
2019-05-03T20:37:14.696Z,7.06
2019-05-03T20:38:15.206Z,7.06
2019-05-03T20:39:14.839Z,7.06
2019-05-03T20:40:15.278Z,7.06
2019-05-03T20:41:14.881Z,7.03
2019-05-03T20:42:15.371Z,7.06
2019-05-03T20:43:13.627Z,7.05
2019-05-03T20:44:14.354Z,7.05
2019-05-03T20:45:14.405Z,7.05
2019-05-03T20:46:15.093Z,7.00
2019-05-03T20:47:14.917Z,6.96
2019-05-03T20:48:14.517Z,6.92
2019-05-03T20:49:15.020Z,6.87
2019-05-03T20:50:15.320Z,6.85
2019-05-03T20:51:14.900Z,6.84
2019-05-03T20:52:15.220Z,6.82
2019-05-03T20:53:13.488Z,6.82
2019-05-03T20:54:15.288Z,6.78
2019-05-03T20:55:15.338Z,6.72
2019-05-03T20:56:15.316Z,6.69
2019-05-03T20:57:14.458Z,6.63
2019-05-03T20:58:14.537Z,6.59
2019-05-03T20:59:14.766Z,6.54
2019-05-03T21:00:14.978Z,6.51
2019-05-03T21:01:15.147Z,6.45
2019-05-03T21:02:15.223Z,6.44
2019-05-03T21:03:15.234Z,6.39
2019-05-03T21:04:15.181Z,6.38
2019-05-03T21:05:24.675Z,6.35
2019-05-03T21:06:15.229Z,6.33
2019-05-03T21:07:15.230Z,6.35
2019-05-03T21:08:14.836Z,6.30
2019-05-03T21:09:14.859Z,6.30
2019-05-03T21:10:15.456Z,6.28
2019-05-03T21:11:14.800Z,6.27
2019-05-03T21:12:14.913Z,6.26
2019-05-03T21:13:14.643Z,6.24
2019-05-03T21:14:15.271Z,6.22
2019-05-03T21:15:15.385Z,6.20
2019-05-03T21:16:14.778Z,6.17
2019-05-03T21:17:14.927Z,6.16
2019-05-03T21:18:15.106Z,6.17
2019-05-03T21:19:14.020Z,6.16
2019-05-03T21:20:14.791Z,6.14
2019-05-03T21:21:13.203Z,6.12
2019-05-03T21:22:14.382Z,6.14
2019-05-03T21:23:14.742Z,6.11
2019-05-03T21:24:13.170Z,6.11
2019-05-03T21:25:13.183Z,6.11
2019-05-03T21:26:16.382Z,6.09
2019-05-03T21:27:13.130Z,6.09
2019-05-03T21:28:13.124Z,6.09
2019-05-03T21:29:15.069Z,6.09
2019-05-03T21:30:15.035Z,6.09
2019-05-03T21:31:13.111Z,6.08
2019-05-03T21:32:14.903Z,6.07
2019-05-03T21:33:13.083Z,6.09
2019-05-03T21:34:14.780Z,6.09
2019-05-03T21:35:14.709Z,6.09
2019-05-03T21:36:14.956Z,6.08
2019-05-03T21:37:15.040Z,6.08
2019-05-03T21:38:13.027Z,6.09
2019-05-03T21:39:14.635Z,6.11
2019-05-03T21:40:13.007Z,6.12
2019-05-03T21:41:13.017Z,6.14
2019-05-03T21:42:15.090Z,6.14
2019-05-03T21:43:12.941Z,6.17
2019-05-03T21:44:12.943Z,6.17
2019-05-03T21:45:15.040Z,6.17
2019-05-03T21:46:15.040Z,6.19
2019-05-03T21:47:12.955Z,6.19
2019-05-03T21:48:14.592Z,6.17
2019-05-03T21:49:14.795Z,6.17
2019-05-03T21:50:14.638Z,6.17
2019-05-03T21:51:14.981Z,6.17
2019-05-03T21:52:14.633Z,6.19
2019-05-03T21:53:14.703Z,6.17
2019-05-03T21:54:12.842Z,6.17
2019-05-03T21:55:14.441Z,6.19
2019-05-03T21:56:14.352Z,6.17
2019-05-03T21:57:14.242Z,6.19
2019-05-03T21:58:16.137Z,6.19
2019-05-03T21:59:12.811Z,6.22
2019-05-03T22:00:12.884Z,6.24
2019-05-03T22:01:12.781Z,6.22
2019-05-03T22:02:12.759Z,6.24
2019-05-03T22:03:14.596Z,6.22
2019-05-03T22:04:12.763Z,6.24
2019-05-03T22:05:14.233Z,6.24
2019-05-03T22:06:12.827Z,6.24
2019-05-03T22:07:12.734Z,6.22
2019-05-03T22:08:12.719Z,6.22
2019-05-03T22:09:12.677Z,6.22
2019-05-03T22:10:12.695Z,6.19
2019-05-03T22:11:14.686Z,6.17
2019-05-03T22:12:14.379Z,6.16
2019-05-03T22:13:12.668Z,6.17
2019-05-03T22:14:12.637Z,6.16
2019-05-03T22:15:12.631Z,6.12
2019-05-03T22:16:12.604Z,6.09
2019-05-03T22:17:14.759Z,6.07
2019-05-03T22:18:12.592Z,6.07
2019-05-03T22:19:16.264Z,6.04
2019-05-03T22:20:13.573Z,6.02
2019-05-03T22:21:12.562Z,6.01
2019-05-03T22:22:14.786Z,5.99
2019-05-03T22:23:12.542Z,5.98
2019-05-03T22:24:14.651Z,5.94
2019-05-03T22:25:12.536Z,5.93
2019-05-03T22:26:12.500Z,5.91
2019-05-03T22:27:12.499Z,5.91